sensor_id;sensor_type;location;lat;lon;timestamp;pressure;altitude;pressure_sealevel;temperature;humidity
11487;BME280;10510;47.942;9.442;2023-05-03T00:01:31;95236.03;;;4.74;100.00
11487;BME280;10510;47.942;9.442;2023-05-03T00:03:32;95240.50;;;4.72;100.00
11487;BME280;10510;47.942;9.442;2023-05-03T00:05:32;95233.69;;;4.71;100.00
11487;BME280;10510;47.942;9.442;2023-05-03T00:07:33;95233.00;;;4.69;100.00
11487;BME280;10510;47.942;9.442;2023-05-03T00:09:33;95232.19;;;4.68;100.00
11487;BME280;10510;47.942;9.442;2023-05-03T00:11:35;95230.53;;;4.67;100.00
11487;BME280;10510;47.942;9.442;2023-05-03T00:13:35;95237.63;;;4.65;100.00
11487;BME280;10510;47.942;9.442;2023-05-03T00:15:36;95235.31;;;4.62;100.00
11487;BME280;10510;47.942;9.442;2023-05-03T00:17:36;95233.53;;;4.63;100.00
11487;BME280;10510;47.942;9.442;2023-05-03T00:19:37;95229.56;;;4.59;100.00
11487;BME280;10510;47.942;9.442;2023-05-03T00:21:37;95228.19;;;4.54;100.00
11487;BME280;10510;47.942;9.442;2023-05-03T00:23:37;95227.66;;;4.51;100.00
11487;BME280;10510;47.942;9.442;2023-05-03T00:25:38;95232.38;;;4.46;100.00
11487;BME280;10510;47.942;9.442;2023-05-03T00:27:38;95228.28;;;4.43;100.00
11487;BME280;10510;47.942;9.442;2023-05-03T00:29:38;95231.13;;;4.40;100.00
11487;BME280;10510;47.942;9.442;2023-05-03T00:31:38;95223.38;;;4.40;100.00
11487;BME280;10510;47.942;9.442;2023-05-03T00:33:39;95227.03;;;4.38;100.00
11487;BME280;10510;47.942;9.442;2023-05-03T00:35:39;95225.28;;;4.38;100.00
11487;BME280;10510;47.942;9.442;2023-05-03T00:37:40;95214.91;;;4.38;100.00
11487;BME280;10510;47.942;9.442;2023-05-03T00:39:40;95216.44;;;4.41;100.00
11487;BME280;10510;47.942;9.442;2023-05-03T00:41:40;95211.25;;;4.41;100.00
11487;BME280;10510;47.942;9.442;2023-05-03T00:43:41;95215.50;;;4.42;100.00
11487;BME280;10510;47.942;9.442;2023-05-03T00:45:41;95208.53;;;4.42;100.00
11487;BME280;10510;47.942;9.442;2023-05-03T00:47:44;95204.19;;;4.43;100.00
11487;BME280;10510;47.942;9.442;2023-05-03T00:49:45;95200.78;;;4.42;100.00
11487;BME280;10510;47.942;9.442;2023-05-03T00:51:45;95203.38;;;4.42;100.00
11487;BME280;10510;47.942;9.442;2023-05-03T00:53:45;95205.97;;;4.42;100.00
11487;BME280;10510;47.942;9.442;2023-05-03T00:55:46;95205.00;;;4.43;100.00
11487;BME280;10510;47.942;9.442;2023-05-03T00:57:46;95207.72;;;4.42;100.00
11487;BME280;10510;47.942;9.442;2023-05-03T00:59:47;95195.88;;;4.39;100.00
11487;BME280;10510;47.942;9.442;2023-05-03T01:01:49;95200.09;;;4.40;100.00
11487;BME280;10510;47.942;9.442;2023-05-03T01:03:49;95198.56;;;4.38;100.00
11487;BME280;10510;47.942;9.442;2023-05-03T01:05:57;95203.59;;;4.29;100.00
11487;BME280;10510;47.942;9.442;2023-05-03T01:08:10;95200.31;;;4.27;100.00
11487;BME280;10510;47.942;9.442;2023-05-03T01:10:25;95189.16;;;4.27;100.00
11487;BME280;10510;47.942;9.442;2023-05-03T01:14:58;95190.53;;;4.31;100.00
11487;BME280;10510;47.942;9.442;2023-05-03T01:17:03;95184.78;;;4.27;100.00
11487;BME280;10510;47.942;9.442;2023-05-03T01:19:25;95185.19;;;4.23;100.00
11487;BME280;10510;47.942;9.442;2023-05-03T01:21:28;95197.56;;;4.19;100.00
11487;BME280;10510;47.942;9.442;2023-05-03T01:23:42;95192.66;;;4.16;100.00
11487;BME280;10510;47.942;9.442;2023-05-03T01:25:45;95191.03;;;4.15;100.00
11487;BME280;10510;47.942;9.442;2023-05-03T01:27:45;95188.56;;;4.14;100.00
11487;BME280;10510;47.942;9.442;2023-05-03T01:29:45;95189.38;;;4.14;100.00
11487;BME280;10510;47.942;9.442;2023-05-03T01:31:56;95181.75;;;4.13;100.00
11487;BME280;10510;47.942;9.442;2023-05-03T01:34:17;95188.81;;;4.10;100.00
11487;BME280;10510;47.942;9.442;2023-05-03T01:36:29;95190.16;;;4.05;100.00
11487;BME280;10510;47.942;9.442;2023-05-03T01:38:35;95195.03;;;3.98;100.00
11487;BME280;10510;47.942;9.442;2023-05-03T01:40:41;95186.84;;;3.93;100.00
11487;BME280;10510;47.942;9.442;2023-05-03T01:42:42;95197.69;;;3.87;100.00
11487;BME280;10510;47.942;9.442;2023-05-03T01:44:43;95196.31;;;3.83;100.00
11487;BME280;10510;47.942;9.442;2023-05-03T01:46:44;95199.16;;;3.80;100.00
11487;BME280;10510;47.942;9.442;2023-05-03T01:48:46;95196.69;;;3.78;100.00
11487;BME280;10510;47.942;9.442;2023-05-03T01:50:46;95191.66;;;3.77;100.00
11487;BME280;10510;47.942;9.442;2023-05-03T01:52:47;95193.56;;;3.75;100.00
11487;BME280;10510;47.942;9.442;2023-05-03T01:54:47;95195.44;;;3.73;100.00
11487;BME280;10510;47.942;9.442;2023-05-03T01:56:47;95197.34;;;3.71;100.00
11487;BME280;10510;47.942;9.442;2023-05-03T01:58:48;95193.94;;;3.70;100.00
11487;BME280;10510;47.942;9.442;2023-05-03T02:00:48;95197.22;;;3.72;100.00
11487;BME280;10510;47.942;9.442;2023-05-03T02:02:48;95196.25;;;3.73;100.00
11487;BME280;10510;47.942;9.442;2023-05-03T02:04:48;95200.25;;;3.77;100.00
11487;BME280;10510;47.942;9.442;2023-05-03T02:06:49;95193.03;;;3.81;100.00
11487;BME280;10510;47.942;9.442;2023-05-03T02:08:49;95197.94;;;3.84;100.00
11487;BME280;10510;47.942;9.442;2023-05-03T02:10:49;95197.84;;;3.85;100.00
11487;BME280;10510;47.942;9.442;2023-05-03T02:12:50;95208.31;;;3.84;100.00
11487;BME280;10510;47.942;9.442;2023-05-03T02:14:50;95198.91;;;3.83;100.00
11487;BME280;10510;47.942;9.442;2023-05-03T02:16:51;95199.72;;;3.83;100.00
11487;BME280;10510;47.942;9.442;2023-05-03T02:18:54;95193.59;;;3.84;100.00
11487;BME280;10510;47.942;9.442;2023-05-03T02:20:58;95198.41;;;3.89;100.00
11487;BME280;10510;47.942;9.442;2023-05-03T02:22:59;95193.91;;;3.91;100.00
11487;BME280;10510;47.942;9.442;2023-05-03T02:24:59;95191.06;;;3.94;100.00
11487;BME280;10510;47.942;9.442;2023-05-03T02:26:59;95195.16;;;3.97;100.00
11487;BME280;10510;47.942;9.442;2023-05-03T02:29:03;95197.22;;;4.03;100.00
11487;BME280;10510;47.942;9.442;2023-05-03T02:31:03;95186.50;;;4.07;100.00
11487;BME280;10510;47.942;9.442;2023-05-03T02:33:05;95187.19;;;4.09;100.00
11487;BME280;10510;47.942;9.442;2023-05-03T02:35:05;95188.97;;;4.09;100.00
11487;BME280;10510;47.942;9.442;2023-05-03T02:37:06;95195.31;;;4.05;100.00
11487;BME280;10510;47.942;9.442;2023-05-03T02:39:06;95189.59;;;4.01;100.00
11487;BME280;10510;47.942;9.442;2023-05-03T02:41:06;95194.78;;;4.01;100.00
11487;BME280;10510;47.942;9.442;2023-05-03T02:43:07;95199.13;;;4.01;100.00
11487;BME280;10510;47.942;9.442;2023-05-03T02:45:07;95191.50;;;3.99;100.00
11487;BME280;10510;47.942;9.442;2023-05-03T02:47:08;95194.06;;;3.99;100.00
11487;BME280;10510;47.942;9.442;2023-05-03T02:49:08;95189.03;;;3.98;100.00
11487;BME280;10510;47.942;9.442;2023-05-03T02:51:09;95185.75;;;3.96;100.00
11487;BME280;10510;47.942;9.442;2023-05-03T02:53:09;95191.63;;;3.98;100.00
11487;BME280;10510;47.942;9.442;2023-05-03T02:55:09;95191.75;;;3.96;100.00
11487;BME280;10510;47.942;9.442;2023-05-03T02:57:09;95192.44;;;3.98;100.00
11487;BME280;10510;47.942;9.442;2023-05-03T02:59:11;95188.34;;;3.96;100.00
11487;BME280;10510;47.942;9.442;2023-05-03T03:01:11;95189.03;;;3.98;100.00
11487;BME280;10510;47.942;9.442;2023-05-03T03:03:12;95184.13;;;3.95;100.00
11487;BME280;10510;47.942;9.442;2023-05-03T03:05:12;95191.06;;;3.94;100.00
11487;BME280;10510;47.942;9.442;2023-05-03T03:07:12;95190.94;;;3.96;100.00
11487;BME280;10510;47.942;9.442;2023-05-03T03:09:12;95186.31;;;3.99;100.00
11487;BME280;10510;47.942;9.442;2023-05-03T03:11:13;95196.13;;;4.05;100.00
11487;BME280;10510;47.942;9.442;2023-05-03T03:13:13;95194.13;;;4.09;100.00
11487;BME280;10510;47.942;9.442;2023-05-03T03:15:14;95193.88;;;4.12;100.00
11487;BME280;10510;47.942;9.442;2023-05-03T03:17:14;95190.44;;;4.12;100.00
11487;BME280;10510;47.942;9.442;2023-05-03T03:19:14;95197.38;;;4.11;100.00
11487;BME280;10510;47.942;9.442;2023-05-03T03:21:14;95192.38;;;4.09;100.00
11487;BME280;10510;47.942;9.442;2023-05-03T03:23:15;95182.28;;;4.06;100.00
11487;BME280;10510;47.942;9.442;2023-05-03T03:25:15;95178.19;;;4.04;100.00
11487;BME280;10510;47.942;9.442;2023-05-03T03:27:15;95175.84;;;4.01;100.00
11487;BME280;10510;47.942;9.442;2023-05-03T03:29:16;95172.44;;;4.00;100.00
11487;BME280;10510;47.942;9.442;2023-05-03T03:31:16;95184.53;;;4.00;100.00
11487;BME280;10510;47.942;9.442;2023-05-03T03:33:17;95180.22;;;4.00;100.00
11487;BME280;10510;47.942;9.442;2023-05-03T03:35:18;95180.75;;;4.04;100.00
11487;BME280;10510;47.942;9.442;2023-05-03T03:37:18;95179.53;;;4.08;100.00
11487;BME280;10510;47.942;9.442;2023-05-03T03:39:21;95177.00;;;4.18;100.00
11487;BME280;10510;47.942;9.442;2023-05-03T03:41:21;95177.56;;;4.21;100.00
11487;BME280;10510;47.942;9.442;2023-05-03T03:43:22;95182.75;;;4.31;100.00
11487;BME280;10510;47.942;9.442;2023-05-03T03:45:22;95187.03;;;4.42;100.00
11487;BME280;10510;47.942;9.442;2023-05-03T03:47:22;95181.88;;;4.51;100.00
11487;BME280;10510;47.942;9.442;2023-05-03T03:49:23;95180.38;;;4.59;100.00
11487;BME280;10510;47.942;9.442;2023-05-03T03:51:23;95187.91;;;4.71;100.00
11487;BME280;10510;47.942;9.442;2023-05-03T03:53:23;95177.28;;;4.84;100.00
11487;BME280;10510;47.942;9.442;2023-05-03T03:55:24;95191.72;;;4.96;100.00
11487;BME280;10510;47.942;9.442;2023-05-03T03:57:24;95193.38;;;5.07;100.00
11487;BME280;10510;47.942;9.442;2023-05-03T03:59:29;95190.78;;;5.17;100.00
11487;BME280;10510;47.942;9.442;2023-05-03T04:01:29;95194.34;;;5.26;100.00
11487;BME280;10510;47.942;9.442;2023-05-03T04:03:29;95195.56;;;5.31;100.00
11487;BME280;10510;47.942;9.442;2023-05-03T04:05:30;95196.91;;;5.35;100.00
11487;BME280;10510;47.942;9.442;2023-05-03T04:07:30;95204.16;;;5.41;100.00
11487;BME280;10510;47.942;9.442;2023-05-03T04:09:30;95203.88;;;5.44;100.00
11487;BME280;10510;47.942;9.442;2023-05-03T04:11:31;95203.47;;;5.49;100.00
11487;BME280;10510;47.942;9.442;2023-05-03T04:13:31;95191.88;;;5.53;100.00
11487;BME280;10510;47.942;9.442;2023-05-03T04:15:32;95207.00;;;5.58;100.00
11487;BME280;10510;47.942;9.442;2023-05-03T04:17:32;95204.00;;;5.62;100.00
11487;BME280;10510;47.942;9.442;2023-05-03T04:19:33;95210.41;;;5.68;100.00
11487;BME280;10510;47.942;9.442;2023-05-03T04:21:34;95208.34;;;5.72;100.00
11487;BME280;10510;47.942;9.442;2023-05-03T04:23:34;95207.09;;;5.76;100.00
11487;BME280;10510;47.942;9.442;2023-05-03T04:25:35;95204.91;;;5.81;100.00
11487;BME280;10510;47.942;9.442;2023-05-03T04:27:36;95213.22;;;5.84;100.00
11487;BME280;10510;47.942;9.442;2023-05-03T04:29:37;95211.84;;;5.90;100.00
11487;BME280;10510;47.942;9.442;2023-05-03T04:31:37;95220.06;;;5.95;100.00
11487;BME280;10510;47.942;9.442;2023-05-03T04:33:39;95213.78;;;5.98;100.00
11487;BME280;10510;47.942;9.442;2023-05-03T04:35:39;95224.69;;;6.01;100.00
11487;BME280;10510;47.942;9.442;2023-05-03T04:37:40;95222.63;;;6.05;100.00
11487;BME280;10510;47.942;9.442;2023-05-03T04:39:41;95227.41;;;6.09;100.00
11487;BME280;10510;47.942;9.442;2023-05-03T04:41:41;95224.38;;;6.14;100.00
11487;BME280;10510;47.942;9.442;2023-05-03T04:43:41;95218.09;;;6.17;100.00
11487;BME280;10510;47.942;9.442;2023-05-03T04:45:42;95217.50;;;6.23;100.00
11487;BME280;10510;47.942;9.442;2023-05-03T04:47:42;95220.78;;;6.25;100.00
11487;BME280;10510;47.942;9.442;2023-05-03T04:49:42;95224.72;;;6.29;100.00
11487;BME280;10510;47.942;9.442;2023-05-03T04:51:43;95218.44;;;6.31;100.00
11487;BME280;10510;47.942;9.442;2023-05-03T04:53:43;95220.75;;;6.34;100.00
11487;BME280;10510;47.942;9.442;2023-05-03T04:55:43;95222.94;;;6.39;100.00
11487;BME280;10510;47.942;9.442;2023-05-03T04:57:43;95220.03;;;6.42;100.00
11487;BME280;10510;47.942;9.442;2023-05-03T04:59:44;95228.34;;;6.46;100.00
11487;BME280;10510;47.942;9.442;2023-05-03T05:01:44;95228.88;;;6.49;100.00
11487;BME280;10510;47.942;9.442;2023-05-03T05:03:44;95226.16;;;6.51;100.00
11487;BME280;10510;47.942;9.442;2023-05-03T05:05:44;95221.63;;;6.53;100.00
11487;BME280;10510;47.942;9.442;2023-05-03T05:07:45;95228.59;;;6.52;100.00
11487;BME280;10510;47.942;9.442;2023-05-03T05:09:45;95227.78;;;6.52;100.00
11487;BME280;10510;47.942;9.442;2023-05-03T05:11:45;95224.22;;;6.53;100.00
11487;BME280;10510;47.942;9.442;2023-05-03T05:13:46;95240.75;;;6.52;100.00
11487;BME280;10510;47.942;9.442;2023-05-03T05:15:46;95227.78;;;6.52;100.00
11487;BME280;10510;47.942;9.442;2023-05-03T05:17:46;95236.53;;;6.51;100.00
11487;BME280;10510;47.942;9.442;2023-05-03T05:19:47;95240.09;;;6.50;100.00
11487;BME280;10510;47.942;9.442;2023-05-03T05:21:47;95240.91;;;6.50;100.00
11487;BME280;10510;47.942;9.442;2023-05-03T05:23:47;95240.91;;;6.50;100.00
11487;BME280;10510;47.942;9.442;2023-05-03T05:25:48;95243.66;;;6.49;100.00
11487;BME280;10510;47.942;9.442;2023-05-03T05:27:48;95239.44;;;6.48;100.00
11487;BME280;10510;47.942;9.442;2023-05-03T05:29:48;95242.84;;;6.48;100.00
11487;BME280;10510;47.942;9.442;2023-05-03T05:31:49;95247.59;;;6.53;100.00
11487;BME280;10510;47.942;9.442;2023-05-03T05:33:49;95253.47;;;6.55;100.00
11487;BME280;10510;47.942;9.442;2023-05-03T05:35:49;95255.66;;;6.59;100.00
11487;BME280;10510;47.942;9.442;2023-05-03T05:37:50;95250.16;;;6.63;100.00
11487;BME280;10510;47.942;9.442;2023-05-03T05:39:50;95258.75;;;6.63;100.00
11487;BME280;10510;47.942;9.442;2023-05-03T05:41:50;95260.09;;;6.67;100.00
11487;BME280;10510;47.942;9.442;2023-05-03T05:43:50;95259.53;;;6.73;100.00
11487;BME280;10510;47.942;9.442;2023-05-03T05:45:51;95256.91;;;6.73;100.00
11487;BME280;10510;47.942;9.442;2023-05-03T05:47:51;95258.88;;;6.71;100.00
11487;BME280;10510;47.942;9.442;2023-05-03T05:49:51;95260.50;;;6.72;100.00
11487;BME280;10510;47.942;9.442;2023-05-03T05:51:52;95263.63;;;6.76;100.00
11487;BME280;10510;47.942;9.442;2023-05-03T05:53:52;95260.72;;;6.79;100.00
11487;BME280;10510;47.942;9.442;2023-05-03T05:55:52;95260.59;;;6.80;100.00
11487;BME280;10510;47.942;9.442;2023-05-03T05:57:53;95262.91;;;6.83;100.00
11487;BME280;10510;47.942;9.442;2023-05-03T05:59:53;95263.72;;;6.84;100.00
11487;BME280;10510;47.942;9.442;2023-05-03T06:01:53;95262.75;;;6.85;100.00
11487;BME280;10510;47.942;9.442;2023-05-03T06:03:54;95266.03;;;6.87;100.00
11487;BME280;10510;47.942;9.442;2023-05-03T06:05:55;95265.88;;;6.89;100.00
11487;BME280;10510;47.942;9.442;2023-05-03T06:07:55;95266.03;;;6.87;100.00
11487;BME280;10510;47.942;9.442;2023-05-03T06:09:56;95262.19;;;6.91;100.00
11487;BME280;10510;47.942;9.442;2023-05-03T06:11:56;95264.34;;;6.96;100.00
11487;BME280;10510;47.942;9.442;2023-05-03T06:13:56;95256.94;;;7.01;100.00
11487;BME280;10510;47.942;9.442;2023-05-03T06:15:57;95254.03;;;7.04;100.00
11487;BME280;10510;47.942;9.442;2023-05-03T06:17:57;95257.16;;;7.08;100.00
11487;BME280;10510;47.942;9.442;2023-05-03T06:19:57;95260.81;;;7.15;100.00
11487;BME280;10510;47.942;9.442;2023-05-03T06:21:58;95262.81;;;7.21;100.00
11487;BME280;10510;47.942;9.442;2023-05-03T06:23:58;95268.25;;;7.27;100.00
11487;BME280;10510;47.942;9.442;2023-05-03T06:25:58;95263.25;;;7.34;100.00
11487;BME280;10510;47.942;9.442;2023-05-03T06:27:58;95266.25;;;7.39;100.00
11487;BME280;10510;47.942;9.442;2023-05-03T06:29:59;95265.47;;;7.47;100.00
11487;BME280;10510;47.942;9.442;2023-05-03T06:31:59;95270.13;;;7.53;100.00
11487;BME280;10510;47.942;9.442;2023-05-03T06:34:00;95267.06;;;7.58;100.00
11487;BME280;10510;47.942;9.442;2023-05-03T06:36:00;95278.66;;;7.63;100.00
11487;BME280;10510;47.942;9.442;2023-05-03T06:38:00;95273.97;;;7.67;100.00
11487;BME280;10510;47.942;9.442;2023-05-03T06:40:01;95270.75;;;7.73;100.00
11487;BME280;10510;47.942;9.442;2023-05-03T06:42:01;95266.72;;;7.79;100.00
11487;BME280;10510;47.942;9.442;2023-05-03T06:44:01;95268.72;;;7.85;100.00
11487;BME280;10510;47.942;9.442;2023-05-03T06:46:03;95267.63;;;7.87;100.00
11487;BME280;10510;47.942;9.442;2023-05-03T06:48:03;95275.50;;;7.95;100.00
11487;BME280;10510;47.942;9.442;2023-05-03T06:50:04;95273.91;;;8.03;100.00
11487;BME280;10510;47.942;9.442;2023-05-03T06:52:05;95271.97;;;8.05;100.00
11487;BME280;10510;47.942;9.442;2023-05-03T06:54:06;95272.19;;;8.11;100.00
11487;BME280;10510;47.942;9.442;2023-05-03T06:56:08;95274.03;;;8.19;100.00
11487;BME280;10510;47.942;9.442;2023-05-03T06:58:08;95266.09;;;8.29;100.00
11487;BME280;10510;47.942;9.442;2023-05-03T07:00:11;95265.78;;;8.32;100.00
11487;BME280;10510;47.942;9.442;2023-05-03T07:02:11;95264.91;;;8.41;100.00
11487;BME280;10510;47.942;9.442;2023-05-03T07:04:12;95262.81;;;8.45;100.00
11487;BME280;10510;47.942;9.442;2023-05-03T07:06:12;95265.75;;;8.50;100.00
11487;BME280;10510;47.942;9.442;2023-05-03T07:08:12;95267.47;;;8.59;100.00
11487;BME280;10510;47.942;9.442;2023-05-03T07:10:13;95262.13;;;8.69;100.00
11487;BME280;10510;47.942;9.442;2023-05-03T07:12:13;95255.94;;;8.70;100.00
11487;BME280;10510;47.942;9.442;2023-05-03T07:14:13;95257.59;;;8.79;100.00
11487;BME280;10510;47.942;9.442;2023-05-03T07:16:14;95245.91;;;8.91;100.00
11487;BME280;10510;47.942;9.442;2023-05-03T07:18:15;95251.34;;;9.06;100.00
11487;BME280;10510;47.942;9.442;2023-05-03T07:20:15;95243.38;;;9.16;100.00
11487;BME280;10510;47.942;9.442;2023-05-03T07:22:16;95244.19;;;9.16;100.00
11487;BME280;10510;47.942;9.442;2023-05-03T07:24:16;95247.13;;;9.21;100.00
11487;BME280;10510;47.942;9.442;2023-05-03T07:26:16;95245.19;;;9.31;100.00
11487;BME280;10510;47.942;9.442;2023-05-03T07:28:16;95247.31;;;9.36;100.00
11487;BME280;10510;47.942;9.442;2023-05-03T07:30:17;95247.81;;;9.40;100.00
11487;BME280;10510;47.942;9.442;2023-05-03T07:32:18;95238.03;;;9.42;100.00
11487;BME280;10510;47.942;9.442;2023-05-03T07:34:18;95238.03;;;9.50;100.00
11487;BME280;10510;47.942;9.442;2023-05-03T07:36:18;95237.38;;;9.64;100.00
11487;BME280;10510;47.942;9.442;2023-05-03T07:38:19;95241.34;;;9.76;100.00
11487;BME280;10510;47.942;9.442;2023-05-03T07:40:19;95241.50;;;9.83;100.00
11487;BME280;10510;47.942;9.442;2023-05-03T07:42:19;95246.38;;;9.94;100.00
11487;BME280;10510;47.942;9.442;2023-05-03T07:44:20;95241.13;;;10.02;100.00
11487;BME280;10510;47.942;9.442;2023-05-03T07:46:20;95242.94;;;10.10;100.00
11487;BME280;10510;47.942;9.442;2023-05-03T07:48:20;95241.44;;;10.16;100.00
11487;BME280;10510;47.942;9.442;2023-05-03T07:50:21;95247.81;;;10.21;100.00
11487;BME280;10510;47.942;9.442;2023-05-03T07:52:21;95242.41;;;10.23;100.00
11487;BME280;10510;47.942;9.442;2023-05-03T07:54:22;95244.72;;;10.18;100.00
11487;BME280;10510;47.942;9.442;2023-05-03T07:56:22;95241.13;;;10.19;100.00
11487;BME280;10510;47.942;9.442;2023-05-03T07:58:22;95245.06;;;10.15;100.00
11487;BME280;10510;47.942;9.442;2023-05-03T08:00:23;95242.59;;;10.21;100.00
11487;BME280;10510;47.942;9.442;2023-05-03T08:02:23;95232.78;;;10.23;100.00
11487;BME280;10510;47.942;9.442;2023-05-03T08:04:23;95235.06;;;10.43;100.00
11487;BME280;10510;47.942;9.442;2023-05-03T08:06:24;95242.34;;;10.64;100.00
11487;BME280;10510;47.942;9.442;2023-05-03T08:08:24;95229.72;;;10.67;100.00
11487;BME280;10510;47.942;9.442;2023-05-03T08:10:25;95231.63;;;10.82;100.00
11487;BME280;10510;47.942;9.442;2023-05-03T08:12:25;95226.38;;;10.90;100.00
11487;BME280;10510;47.942;9.442;2023-05-03T08:14:26;95221.50;;;11.18;100.00
11487;BME280;10510;47.942;9.442;2023-05-03T08:16:26;95221.28;;;11.28;100.00
11487;BME280;10510;47.942;9.442;2023-05-03T08:18:27;95215.81;;;11.37;100.00
11487;BME280;10510;47.942;9.442;2023-05-03T08:20:27;95221.84;;;11.38;100.00
11487;BME280;10510;47.942;9.442;2023-05-03T08:22:28;95220.06;;;11.39;100.00
11487;BME280;10510;47.942;9.442;2023-05-03T08:24:29;95225.00;;;11.33;100.00
11487;BME280;10510;47.942;9.442;2023-05-03T08:26:30;95228.06;;;11.37;100.00
11487;BME280;10510;47.942;9.442;2023-05-03T08:28:30;95225.47;;;11.37;100.00
11487;BME280;10510;47.942;9.442;2023-05-03T08:30:31;95229.22;;;11.34;100.00
11487;BME280;10510;47.942;9.442;2023-05-03T08:32:31;95223.19;;;11.34;100.00
11487;BME280;10510;47.942;9.442;2023-05-03T08:34:31;95225.00;;;11.33;100.00
11487;BME280;10510;47.942;9.442;2023-05-03T08:36:32;95219.94;;;11.32;100.00
11487;BME280;10510;47.942;9.442;2023-05-03T08:38:33;95230.22;;;11.33;100.00
11487;BME280;10510;47.942;9.442;2023-05-03T08:40:35;95219.41;;;11.36;100.00
11487;BME280;10510;47.942;9.442;2023-05-03T08:42:44;95224.59;;;11.45;100.00
11487;BME280;10510;47.942;9.442;2023-05-03T08:44:46;95222.56;;;11.55;100.00
11487;BME280;10510;47.942;9.442;2023-05-03T08:46:48;95220.28;;;11.52;100.00
11487;BME280;10510;47.942;9.442;2023-05-03T08:48:51;95216.66;;;11.53;100.00
11487;BME280;10510;47.942;9.442;2023-05-03T08:50:52;95220.59;;;11.57;100.00
11487;BME280;10510;47.942;9.442;2023-05-03T08:52:56;95224.88;;;11.73;100.00
11487;BME280;10510;47.942;9.442;2023-05-03T08:54:56;95221.97;;;11.91;100.00
11487;BME280;10510;47.942;9.442;2023-05-03T08:56:56;95226.63;;;12.03;100.00
11487;BME280;10510;47.942;9.442;2023-05-03T08:58:58;95237.84;;;12.12;100.00
11487;BME280;10510;47.942;9.442;2023-05-03T09:01:07;95241.56;;;12.33;100.00
11487;BME280;10510;47.942;9.442;2023-05-03T09:03:09;95239.22;;;12.67;100.00
11487;BME280;10510;47.942;9.442;2023-05-03T09:07:15;95229.97;;;13.01;100.00
11487;BME280;10510;47.942;9.442;2023-05-03T09:09:29;95235.50;;;13.06;100.00
11487;BME280;10510;47.942;9.442;2023-05-03T09:11:31;95226.25;;;13.47;100.00
11487;BME280;10510;47.942;9.442;2023-05-03T09:13:31;95232.78;;;13.51;100.00
11487;BME280;10510;47.942;9.442;2023-05-03T09:15:32;95229.81;;;13.60;100.00
11487;BME280;10510;47.942;9.442;2023-05-03T09:17:33;95236.41;;;13.71;100.00
11487;BME280;10510;47.942;9.442;2023-05-03T09:19:48;95228.44;;;13.64;100.00
11487;BME280;10510;47.942;9.442;2023-05-03T09:21:49;95235.09;;;13.60;100.00
11487;BME280;10510;47.942;9.442;2023-05-03T09:23:50;95232.06;;;14.06;100.00
11487;BME280;10510;47.942;9.442;2023-05-03T09:25:51;95235.22;;;14.51;100.00
11487;BME280;10510;47.942;9.442;2023-05-03T09:28:00;95239.72;;;14.58;100.00
11487;BME280;10510;47.942;9.442;2023-05-03T09:30:16;95234.94;;;14.68;100.00
11487;BME280;10510;47.942;9.442;2023-05-03T09:32:17;95240.13;;;15.03;100.00
11487;BME280;10510;47.942;9.442;2023-05-03T09:34:21;95245.53;;;14.88;100.00
11487;BME280;10510;47.942;9.442;2023-05-03T09:36:22;95224.84;;;14.78;100.00
11487;BME280;10510;47.942;9.442;2023-05-03T09:38:27;95230.53;;;15.30;100.00
11487;BME280;10510;47.942;9.442;2023-05-03T09:40:28;95233.81;;;15.45;100.00
11487;BME280;10510;47.942;9.442;2023-05-03T09:42:28;95226.47;;;15.27;100.00
11487;BME280;10510;47.942;9.442;2023-05-03T09:44:48;95236.28;;;15.60;100.00
11487;BME280;10510;47.942;9.442;2023-05-03T09:47:06;95230.53;;;15.30;100.00
11487;BME280;10510;47.942;9.442;2023-05-03T09:49:06;95230.97;;;15.40;100.00
11487;BME280;10510;47.942;9.442;2023-05-03T09:51:07;95234.84;;;15.57;100.00
11487;BME280;10510;47.942;9.442;2023-05-03T09:53:08;95230.00;;;15.61;100.00
11487;BME280;10510;47.942;9.442;2023-05-03T09:55:08;95229.84;;;15.69;100.00
11487;BME280;10510;47.942;9.442;2023-05-03T09:57:09;95227.03;;;16.10;100.00
11487;BME280;10510;47.942;9.442;2023-05-03T09:59:09;95231.06;;;16.40;100.00
11487;BME280;10510;47.942;9.442;2023-05-03T10:01:09;95222.09;;;16.80;100.00
11487;BME280;10510;47.942;9.442;2023-05-03T10:03:13;95223.16;;;17.24;100.00
11487;BME280;10510;47.942;9.442;2023-05-03T10:05:18;95222.44;;;17.42;100.00
11487;BME280;10510;47.942;9.442;2023-05-03T10:07:22;95227.22;;;17.20;100.00
11487;BME280;10510;47.942;9.442;2023-05-03T10:09:31;95224.44;;;17.02;100.00
11487;BME280;10510;47.942;9.442;2023-05-03T10:11:34;95216.94;;;16.99;100.00
11487;BME280;10510;47.942;9.442;2023-05-03T10:13:37;95223.53;;;16.63;100.00
11487;BME280;10510;47.942;9.442;2023-05-03T10:15:38;95220.13;;;16.29;100.00
11487;BME280;10510;47.942;9.442;2023-05-03T10:17:41;95218.50;;;16.28;100.00
11487;BME280;10510;47.942;9.442;2023-05-03T10:22:04;95211.22;;;15.97;100.00
11487;BME280;10510;47.942;9.442;2023-05-03T10:24:12;95210.00;;;15.86;100.00
11487;BME280;10510;47.942;9.442;2023-05-03T10:26:14;95205.94;;;16.10;100.00
11487;BME280;10510;47.942;9.442;2023-05-03T10:28:14;95210.41;;;16.10;100.00
11487;BME280;10510;47.942;9.442;2023-05-03T10:30:31;95212.03;;;16.24;100.00
11487;BME280;10510;47.942;9.442;2023-05-03T10:32:33;95212.97;;;16.50;100.00
11487;BME280;10510;47.942;9.442;2023-05-03T10:34:35;95206.63;;;16.91;100.00
11487;BME280;10510;47.942;9.442;2023-05-03T10:36:41;95207.94;;;17.20;100.00
11487;BME280;10510;47.942;9.442;2023-05-03T10:38:42;95200.22;;;17.57;100.00
11487;BME280;10510;47.942;9.442;2023-05-03T10:40:43;95212.81;;;17.55;100.00
11487;BME280;10510;47.942;9.442;2023-05-03T10:42:46;95202.72;;;18.08;100.00
11487;BME280;10510;47.942;9.442;2023-05-03T10:44:50;95208.97;;;18.39;100.00
11487;BME280;10510;47.942;9.442;2023-05-03T10:46:52;95205.81;;;18.74;100.00
11487;BME280;10510;47.942;9.442;2023-05-03T10:49:16;95212.13;;;19.10;100.00